createdAt,value
2023-08-28T00:01:11.448Z,100.00
2023-08-28T00:03:38.009Z,100.00
2023-08-28T00:06:05.089Z,100.00
2023-08-28T00:08:31.814Z,100.00
2023-08-28T00:10:58.401Z,100.00
2023-08-28T00:13:24.927Z,100.00
2023-08-28T00:15:51.487Z,100.00
2023-08-28T00:18:18.167Z,100.00
2023-08-28T00:20:44.672Z,100.00
2023-08-28T00:23:11.173Z,100.00
2023-08-28T00:25:37.661Z,100.00
2023-08-28T00:28:04.465Z,100.00
2023-08-28T00:30:30.957Z,100.00
2023-08-28T00:32:57.564Z,100.00
2023-08-28T00:35:24.198Z,100.00
2023-08-28T00:37:50.774Z,100.00
2023-08-28T00:40:17.674Z,100.00
2023-08-28T00:42:44.285Z,100.00
2023-08-28T00:45:12.265Z,100.00
2023-08-28T00:47:39.540Z,100.00
2023-08-28T00:50:06.783Z,100.00
2023-08-28T00:52:34.128Z,100.00
2023-08-28T00:55:01.099Z,100.00
2023-08-28T00:57:29.330Z,100.00
2023-08-28T00:59:56.843Z,100.00
2023-08-28T01:02:23.568Z,100.00
2023-08-28T01:04:53.213Z,100.00
2023-08-28T01:07:27.184Z,100.00
2023-08-28T01:10:12.509Z,100.00
2023-08-28T01:12:53.098Z,100.00
2023-08-28T01:15:22.194Z,100.00
2023-08-28T01:18:04.059Z,100.00
2023-08-28T01:20:32.888Z,100.00
2023-08-28T01:23:12.153Z,100.00
2023-08-28T01:25:39.117Z,100.00
2023-08-28T01:28:05.894Z,100.00
2023-08-28T01:30:32.927Z,100.00
2023-08-28T01:32:59.511Z,100.00
2023-08-28T01:35:28.161Z,100.00
2023-08-28T01:38:07.004Z,100.00
2023-08-28T01:40:58.554Z,100.00
2023-08-28T01:43:28.892Z,100.00
2023-08-28T01:45:56.115Z,100.00
2023-08-28T01:48:22.708Z,100.00
2023-08-28T01:50:49.243Z,100.00
2023-08-28T01:53:16.728Z,100.00
2023-08-28T01:55:46.281Z,100.00
2023-08-28T01:58:14.371Z,100.00
2023-08-28T02:00:40.990Z,100.00
2023-08-28T02:03:10.147Z,100.00
2023-08-28T02:05:37.598Z,100.00
2023-08-28T02:08:05.500Z,100.00
2023-08-28T02:10:32.188Z,100.00
2023-08-28T02:12:58.758Z,100.00
2023-08-28T02:15:25.612Z,100.00
2023-08-28T02:17:52.197Z,100.00
2023-08-28T02:20:18.855Z,100.00
2023-08-28T02:22:45.402Z,100.00
2023-08-28T02:25:14.785Z,100.00
2023-08-28T02:27:41.287Z,100.00
2023-08-28T02:30:08.595Z,100.00
2023-08-28T02:32:35.289Z,100.00
2023-08-28T02:35:01.866Z,100.00
2023-08-28T02:37:28.390Z,100.00
2023-08-28T02:39:54.889Z,100.00
2023-08-28T02:42:21.438Z,100.00
2023-08-28T02:44:48.106Z,100.00
2023-08-28T02:47:14.654Z,100.00
2023-08-28T02:49:41.130Z,100.00
2023-08-28T02:52:08.134Z,100.00
2023-08-28T02:54:34.724Z,100.00
2023-08-28T02:57:01.786Z,100.00
2023-08-28T02:59:28.773Z,100.00
2023-08-28T03:01:55.357Z,100.00
2023-08-28T03:04:21.932Z,100.00
2023-08-28T03:06:48.570Z,100.00
2023-08-28T03:09:17.920Z,100.00
2023-08-28T03:11:44.472Z,100.00
2023-08-28T03:14:11.062Z,100.00
2023-08-28T03:16:37.643Z,100.00
2023-08-28T03:19:04.542Z,100.00
2023-08-28T03:21:31.467Z,100.00
2023-08-28T03:23:57.999Z,100.00
2023-08-28T03:26:26.695Z,100.00
2023-08-28T03:28:53.264Z,100.00
2023-08-28T03:31:23.188Z,100.00
2023-08-28T03:33:49.766Z,100.00
2023-08-28T03:36:16.900Z,100.00
2023-08-28T03:38:43.513Z,100.00
2023-08-28T03:41:12.936Z,100.00
2023-08-28T03:43:39.529Z,100.00
2023-08-28T03:46:06.337Z,100.00
2023-08-28T03:48:32.860Z,100.00
2023-08-28T03:50:59.374Z,100.00
2023-08-28T03:53:26.392Z,100.00
2023-08-28T03:55:56.075Z,100.00
2023-08-28T03:58:23.403Z,100.00
2023-08-28T04:00:55.250Z,100.00
2023-08-28T04:03:22.296Z,100.00
2023-08-28T04:05:50.430Z,100.00
2023-08-28T04:08:16.978Z,100.00
2023-08-28T04:10:43.948Z,100.00
2023-08-28T04:13:10.499Z,100.00
2023-08-28T04:15:38.928Z,100.00
2023-08-28T04:18:05.885Z,100.00
2023-08-28T04:20:32.461Z,100.00
2023-08-28T04:22:58.986Z,100.00
2023-08-28T04:25:25.507Z,100.00
2023-08-28T04:27:51.987Z,100.00
2023-08-28T04:30:18.508Z,100.00
2023-08-28T04:32:45.066Z,100.00
2023-08-28T04:35:11.627Z,100.00
2023-08-28T04:37:38.163Z,100.00
2023-08-28T04:40:05.392Z,100.00
2023-08-28T04:42:31.940Z,100.00
2023-08-28T04:44:58.491Z,100.00
2023-08-28T04:47:25.170Z,100.00
2023-08-28T04:49:51.799Z,100.00
2023-08-28T04:52:18.303Z,100.00
2023-08-28T04:54:44.794Z,100.00
2023-08-28T04:57:11.350Z,100.00
2023-08-28T04:59:37.888Z,100.00
2023-08-28T05:02:04.585Z,100.00
2023-08-28T05:04:32.326Z,100.00
2023-08-28T05:06:59.500Z,100.00
2023-08-28T05:09:26.086Z,100.00
2023-08-28T05:11:52.683Z,100.00
2023-08-28T05:14:19.204Z,100.00
2023-08-28T05:16:45.710Z,100.00
2023-08-28T05:19:12.196Z,100.00
2023-08-28T05:21:38.762Z,100.00
2023-08-28T05:24:05.410Z,100.00
2023-08-28T05:26:31.939Z,100.00
2023-08-28T05:28:58.495Z,100.00
2023-08-28T05:31:26.199Z,100.00
2023-08-28T05:33:52.768Z,100.00
2023-08-28T05:36:20.626Z,100.00
2023-08-28T05:38:47.929Z,100.00
2023-08-28T05:41:16.482Z,100.00
2023-08-28T05:43:46.334Z,100.00
2023-08-28T05:46:12.897Z,100.00
2023-08-28T05:48:40.061Z,100.00
2023-08-28T05:51:06.570Z,100.00
2023-08-28T05:53:33.532Z,100.00
2023-08-28T05:56:00.083Z,100.00
2023-08-28T05:58:26.614Z,100.00
2023-08-28T06:00:53.141Z,100.00
2023-08-28T06:03:19.838Z,100.00
2023-08-28T06:05:46.606Z,100.00
2023-08-28T06:08:13.836Z,100.00
2023-08-28T06:10:41.609Z,100.00
2023-08-28T06:13:10.935Z,100.00
2023-08-28T06:15:37.438Z,100.00
2023-08-28T06:18:05.824Z,100.00
2023-08-28T06:20:32.578Z,100.00
2023-08-28T06:22:59.167Z,100.00
2023-08-28T06:25:25.909Z,100.00
2023-08-28T06:27:52.803Z,100.00
2023-08-28T06:30:20.451Z,100.00
2023-08-28T06:32:47.117Z,100.00
2023-08-28T06:35:13.678Z,100.00
2023-08-28T06:37:51.686Z,100.00
2023-08-28T06:40:22.426Z,100.00
2023-08-28T06:43:16.208Z,100.00
2023-08-28T06:46:33.507Z,100.00
2023-08-28T06:49:03.479Z,100.00
2023-08-28T06:51:30.265Z,100.00
2023-08-28T06:53:57.979Z,100.00
2023-08-28T06:56:24.560Z,100.00
2023-08-28T06:58:51.223Z,100.00
2023-08-28T07:01:17.863Z,100.00
2023-08-28T07:03:44.506Z,100.00
2023-08-28T07:06:11.286Z,100.00
2023-08-28T07:08:37.851Z,100.00
2023-08-28T07:11:04.452Z,100.00
2023-08-28T07:13:31.039Z,100.00
2023-08-28T07:15:57.932Z,100.00
2023-08-28T07:18:24.624Z,100.00
2023-08-28T07:20:51.315Z,100.00
2023-08-28T07:23:17.936Z,100.00
2023-08-28T07:25:45.537Z,100.00
2023-08-28T07:28:12.279Z,100.00
2023-08-28T07:30:38.942Z,100.00
2023-08-28T07:33:05.888Z,100.00
2023-08-28T07:35:36.284Z,100.00
2023-08-28T07:38:05.028Z,100.00
2023-08-28T07:40:31.746Z,100.00
2023-08-28T07:42:58.295Z,100.00
2023-08-28T07:45:24.933Z,100.00
2023-08-28T07:47:51.622Z,100.00
2023-08-28T07:50:18.470Z,100.00
2023-08-28T07:52:45.022Z,100.00
2023-08-28T07:55:12.287Z,100.00
2023-08-28T07:57:39.040Z,100.00
2023-08-28T08:00:11.409Z,100.00
2023-08-28T08:02:39.911Z,100.00
2023-08-28T08:05:07.086Z,100.00
2023-08-28T08:07:33.717Z,100.00
2023-08-28T08:10:00.340Z,100.00
2023-08-28T08:12:29.969Z,100.00
2023-08-28T08:14:56.479Z,100.00
2023-08-28T08:17:23.104Z,100.00
2023-08-28T08:19:49.733Z,100.00
2023-08-28T08:22:16.271Z,100.00
2023-08-28T08:24:42.885Z,100.00
2023-08-28T08:27:09.457Z,100.00
2023-08-28T08:29:36.001Z,100.00
2023-08-28T08:32:02.725Z,100.00
2023-08-28T08:34:29.793Z,100.00
2023-08-28T08:36:56.412Z,100.00
2023-08-28T08:39:24.411Z,100.00
2023-08-28T08:41:51.322Z,100.00
2023-08-28T08:44:17.904Z,100.00
2023-08-28T08:46:48.349Z,100.00
2023-08-28T08:49:20.674Z,100.00
2023-08-28T08:51:50.015Z,100.00
2023-08-28T08:54:25.961Z,100.00
2023-08-28T08:57:01.186Z,100.00
2023-08-28T08:59:28.005Z,100.00
2023-08-28T09:01:55.188Z,100.00
2023-08-28T09:04:22.436Z,100.00
2023-08-28T09:06:50.339Z,100.00
2023-08-28T09:09:17.177Z,100.00
2023-08-28T09:11:46.317Z,100.00
2023-08-28T09:14:13.824Z,100.00
2023-08-28T09:16:40.402Z,100.00
2023-08-28T09:19:08.306Z,100.00
2023-08-28T09:21:48.889Z,100.00
2023-08-28T09:24:21.555Z,100.00
2023-08-28T09:26:55.115Z,100.00
2023-08-28T09:29:23.726Z,100.00
2023-08-28T09:31:52.440Z,100.00
2023-08-28T09:34:21.338Z,100.00
2023-08-28T09:36:48.091Z,100.00
2023-08-28T09:39:14.939Z,100.00
2023-08-28T09:41:47.629Z,100.00
2023-08-28T09:44:20.103Z,100.00
2023-08-28T09:46:48.366Z,100.00
2023-08-28T09:49:15.259Z,100.00
2023-08-28T09:51:43.791Z,100.00
2023-08-28T09:54:11.950Z,100.00
2023-08-28T09:56:39.798Z,95.57
2023-08-28T09:59:10.751Z,97.22
2023-08-28T10:01:38.981Z,98.29
2023-08-28T10:04:07.711Z,93.10
2023-08-28T10:06:40.528Z,92.15
2023-08-28T10:09:13.996Z,96.19
2023-08-28T10:11:40.861Z,94.07
2023-08-28T10:14:08.436Z,94.76
2023-08-28T10:16:43.386Z,94.68
2023-08-28T10:19:39.162Z,90.68
2023-08-28T10:22:08.567Z,92.22
2023-08-28T10:24:42.715Z,88.25
2023-08-28T10:27:11.704Z,87.46
2023-08-28T10:29:38.882Z,86.79
2023-08-28T10:32:09.834Z,89.32
2023-08-28T10:34:40.950Z,93.84
2023-08-28T10:37:22.148Z,89.01
2023-08-28T10:39:59.364Z,90.97
2023-08-28T10:42:28.140Z,85.99
2023-08-28T10:44:57.998Z,82.95
2023-08-28T10:47:25.249Z,86.88
2023-08-28T10:49:55.874Z,86.44
2023-08-28T10:52:23.489Z,82.75
2023-08-28T10:54:51.464Z,78.23
2023-08-28T10:57:41.178Z,78.84
2023-08-28T11:00:22.373Z,78.87
2023-08-28T11:03:16.039Z,78.90
2023-08-28T11:05:43.801Z,83.15
2023-08-28T11:08:13.101Z,81.87
2023-08-28T11:10:45.411Z,80.60
2023-08-28T11:13:21.948Z,84.14
2023-08-28T11:15:50.883Z,84.70
2023-08-28T11:18:20.360Z,78.64
2023-08-28T11:20:49.167Z,76.08
2023-08-28T11:23:37.752Z,78.86
2023-08-28T11:26:27.121Z,81.03
2023-08-28T11:28:54.165Z,83.16
2023-08-28T11:31:21.111Z,83.76
2023-08-28T11:33:53.085Z,82.87
2023-08-28T11:36:20.223Z,82.21
2023-08-28T11:38:47.974Z,81.13
2023-08-28T11:41:15.350Z,85.61
2023-08-28T11:43:43.513Z,82.29
2023-08-28T11:46:11.516Z,82.71
2023-08-28T11:48:39.559Z,82.47
2023-08-28T11:51:10.302Z,83.51
2023-08-28T11:53:39.228Z,84.34
2023-08-28T11:56:07.021Z,84.74
2023-08-28T11:58:35.641Z,80.63
2023-08-28T12:01:06.460Z,85.39
2023-08-28T12:03:33.990Z,78.14
2023-08-28T12:06:07.275Z,83.77
2023-08-28T12:08:38.437Z,78.53
2023-08-28T12:11:10.023Z,77.31
2023-08-28T12:13:37.869Z,75.41
2023-08-28T12:16:21.699Z,78.04
2023-08-28T12:18:50.126Z,76.57
2023-08-28T12:21:18.422Z,81.77
2023-08-28T12:23:53.970Z,77.16
2023-08-28T12:26:25.202Z,75.72
2023-08-28T12:28:53.077Z,76.08
2023-08-28T12:31:31.621Z,72.25
2023-08-28T12:33:58.594Z,74.13
2023-08-28T12:36:35.951Z,73.98
2023-08-28T12:39:04.614Z,76.67
2023-08-28T12:41:36.162Z,78.38
2023-08-28T12:44:04.035Z,79.15
2023-08-28T12:46:31.393Z,73.90
2023-08-28T12:48:58.220Z,74.52
2023-08-28T12:51:25.239Z,75.10
2023-08-28T12:53:51.946Z,79.16
2023-08-28T12:56:18.516Z,80.70
2023-08-28T12:58:45.214Z,83.45
2023-08-28T13:01:11.877Z,83.29
2023-08-28T13:03:38.458Z,82.91
2023-08-28T13:06:05.838Z,80.29
2023-08-28T13:08:32.477Z,80.95
2023-08-28T13:10:59.090Z,82.02
2023-08-28T13:13:26.623Z,80.74
2023-08-28T13:15:54.732Z,83.31
2023-08-28T13:18:21.484Z,82.04
2023-08-28T13:20:48.463Z,82.44
2023-08-28T13:23:15.037Z,86.66
2023-08-28T13:25:42.218Z,84.55
2023-08-28T13:28:08.825Z,82.04
2023-08-28T13:30:35.679Z,82.07
2023-08-28T13:33:05.813Z,81.42
2023-08-28T13:35:34.126Z,82.03
2023-08-28T13:38:00.923Z,82.63
2023-08-28T13:40:27.746Z,86.02
2023-08-28T13:42:55.001Z,85.68
2023-08-28T13:45:21.628Z,81.13
2023-08-28T13:47:48.324Z,85.28
2023-08-28T13:50:15.014Z,85.62
2023-08-28T13:52:46.161Z,87.54
2023-08-28T13:55:13.566Z,87.85
2023-08-28T13:57:40.240Z,89.63
2023-08-28T14:00:13.098Z,88.58
2023-08-28T14:02:40.345Z,87.55
2023-08-28T14:05:08.741Z,87.29
2023-08-28T14:07:36.237Z,88.78
2023-08-28T14:10:04.681Z,88.46
2023-08-28T14:12:31.347Z,85.90
2023-08-28T14:15:00.872Z,85.56
2023-08-28T14:17:27.803Z,87.50
2023-08-28T14:19:54.462Z,84.57
2023-08-28T14:22:21.020Z,89.95
2023-08-28T14:24:47.748Z,90.12
2023-08-28T14:27:14.342Z,88.70
2023-08-28T14:29:41.094Z,83.49
2023-08-28T14:32:09.502Z,84.40
2023-08-28T14:34:36.033Z,82.88
2023-08-28T14:37:02.654Z,86.14
2023-08-28T14:39:30.139Z,81.01
2023-08-28T14:41:56.718Z,86.38
2023-08-28T14:44:23.336Z,84.74
2023-08-28T14:46:49.871Z,80.87
2023-08-28T14:49:16.912Z,79.26
2023-08-28T14:51:43.435Z,87.38
2023-08-28T14:54:09.944Z,81.75
2023-08-28T14:56:36.513Z,89.01
2023-08-28T14:59:03.967Z,90.82
2023-08-28T15:01:30.488Z,84.32
2023-08-28T15:03:56.988Z,93.62
2023-08-28T15:06:23.479Z,84.70
2023-08-28T15:08:50.048Z,87.43
2023-08-28T15:11:16.582Z,87.48
2023-08-28T15:13:43.089Z,87.82
2023-08-28T15:16:09.569Z,87.46
2023-08-28T15:18:36.071Z,90.11
2023-08-28T15:21:03.111Z,90.20
2023-08-28T15:23:29.625Z,92.36
2023-08-28T15:25:56.150Z,93.34
2023-08-28T15:28:22.739Z,88.55
2023-08-28T15:30:52.827Z,89.72
2023-08-28T15:33:19.386Z,89.01
2023-08-28T15:35:45.867Z,85.14
2023-08-28T15:38:12.411Z,85.89
2023-08-28T15:40:38.950Z,85.07
2023-08-28T15:43:05.782Z,84.65
2023-08-28T15:45:32.526Z,88.22
2023-08-28T15:47:59.336Z,82.36
2023-08-28T15:50:25.930Z,85.78
2023-08-28T15:52:52.720Z,87.10
2023-08-28T15:55:19.345Z,88.64
2023-08-28T15:57:45.894Z,85.48
2023-08-28T16:00:13.060Z,86.10
2023-08-28T16:02:39.629Z,87.87
2023-08-28T16:05:07.319Z,88.14
2023-08-28T16:07:33.862Z,89.50
2023-08-28T16:10:01.583Z,87.47
2023-08-28T16:12:28.107Z,91.08
2023-08-28T16:14:54.648Z,87.14
2023-08-28T16:17:21.131Z,94.17
2023-08-28T16:19:47.680Z,85.45
2023-08-28T16:22:14.172Z,88.75
2023-08-28T16:24:40.877Z,83.46
2023-08-28T16:27:07.697Z,85.75
2023-08-28T16:29:34.986Z,87.54
2023-08-28T16:32:02.216Z,86.90
2023-08-28T16:34:28.998Z,90.48
2023-08-28T16:36:55.919Z,91.11
2023-08-28T16:39:22.659Z,89.58
2023-08-28T16:41:49.280Z,88.53
2023-08-28T16:44:15.919Z,92.58
2023-08-28T16:46:42.715Z,92.03
2023-08-28T16:49:09.436Z,96.38
2023-08-28T16:51:36.081Z,97.03
2023-08-28T16:54:02.661Z,98.05
2023-08-28T16:56:29.373Z,94.35
2023-08-28T16:58:57.063Z,98.11
2023-08-28T17:01:23.739Z,96.76
2023-08-28T17:03:50.445Z,94.86
2023-08-28T17:06:17.167Z,96.33
2023-08-28T17:08:43.773Z,98.71
2023-08-28T17:11:10.391Z,100.00
2023-08-28T17:13:36.949Z,98.08
2023-08-28T17:16:04.118Z,96.92
2023-08-28T17:18:32.094Z,98.90
2023-08-28T17:20:59.819Z,99.04
2023-08-28T17:23:26.352Z,100.00
2023-08-28T17:25:52.843Z,100.00
2023-08-28T17:28:19.371Z,100.00
2023-08-28T17:30:45.883Z,100.00
2023-08-28T17:33:12.438Z,100.00
2023-08-28T17:35:39.001Z,100.00
2023-08-28T17:38:06.947Z,96.65
2023-08-28T17:40:33.486Z,96.98
2023-08-28T17:42:59.980Z,97.94
2023-08-28T17:45:26.677Z,95.96
2023-08-28T17:47:53.172Z,97.99
2023-08-28T17:50:20.090Z,99.00
2023-08-28T17:52:46.584Z,100.00
2023-08-28T17:55:13.078Z,100.00
2023-08-28T17:57:40.159Z,100.00
2023-08-28T18:00:07.512Z,100.00
2023-08-28T18:02:53.861Z,100.00
2023-08-28T18:05:26.140Z,100.00
2023-08-28T18:07:52.734Z,100.00
2023-08-28T18:10:19.274Z,100.00
2023-08-28T18:12:45.866Z,100.00
2023-08-28T18:15:12.386Z,100.00
2023-08-28T18:17:41.137Z,100.00
2023-08-28T18:20:11.118Z,100.00
2023-08-28T18:22:37.986Z,100.00
2023-08-28T18:25:04.837Z,100.00
2023-08-28T18:27:31.423Z,100.00
2023-08-28T18:30:23.412Z,100.00
2023-08-28T18:32:50.124Z,100.00
2023-08-28T18:35:16.902Z,100.00
2023-08-28T18:37:43.508Z,100.00
2023-08-28T18:40:11.258Z,100.00
2023-08-28T18:42:38.580Z,100.00
2023-08-28T18:45:05.493Z,100.00
2023-08-28T18:47:37.679Z,100.00
2023-08-28T18:50:13.947Z,100.00
2023-08-28T18:52:48.146Z,100.00
2023-08-28T18:55:40.514Z,100.00
2023-08-28T18:58:18.211Z,100.00
2023-08-28T19:00:52.093Z,100.00
2023-08-28T19:03:18.835Z,100.00
2023-08-28T19:05:45.950Z,100.00
2023-08-28T19:08:22.206Z,100.00
2023-08-28T19:10:48.946Z,100.00
2023-08-28T19:13:15.607Z,100.00
2023-08-28T19:15:42.459Z,100.00
2023-08-28T19:18:09.882Z,100.00
2023-08-28T19:20:49.603Z,100.00
2023-08-28T19:23:24.453Z,100.00
2023-08-28T19:25:51.514Z,100.00
2023-08-28T19:28:18.107Z,100.00
2023-08-28T19:30:44.660Z,100.00
2023-08-28T19:33:11.354Z,100.00
2023-08-28T19:35:38.005Z,100.00
2023-08-28T19:38:04.901Z,100.00
2023-08-28T19:40:31.643Z,100.00
2023-08-28T19:42:58.224Z,100.00
2023-08-28T19:45:24.741Z,100.00
2023-08-28T19:47:52.438Z,100.00
2023-08-28T19:50:19.144Z,100.00
2023-08-28T19:52:45.681Z,100.00
2023-08-28T19:55:14.950Z,100.00
2023-08-28T19:57:42.620Z,100.00
2023-08-28T20:00:11.133Z,100.00
2023-08-28T20:02:38.192Z,100.00
2023-08-28T20:05:05.737Z,100.00
2023-08-28T20:07:32.419Z,100.00
2023-08-28T20:09:59.055Z,100.00
2023-08-28T20:12:25.568Z,100.00
2023-08-28T20:14:52.825Z,100.00
2023-08-28T20:17:19.596Z,100.00
2023-08-28T20:19:46.162Z,100.00
2023-08-28T20:22:12.705Z,100.00
2023-08-28T20:24:39.280Z,100.00
2023-08-28T20:27:07.561Z,100.00
2023-08-28T20:29:34.151Z,100.00
2023-08-28T20:32:00.761Z,100.00
2023-08-28T20:34:27.504Z,100.00
2023-08-28T20:36:54.504Z,100.00
2023-08-28T20:39:21.257Z,100.00
2023-08-28T20:41:47.861Z,100.00
2023-08-28T20:44:14.528Z,100.00
2023-08-28T20:46:41.346Z,100.00
2023-08-28T20:49:08.390Z,100.00
2023-08-28T20:51:37.046Z,100.00
2023-08-28T20:54:04.120Z,100.00
2023-08-28T20:56:30.828Z,100.00
2023-08-28T20:58:57.431Z,100.00
2023-08-28T21:01:23.999Z,100.00
2023-08-28T21:03:50.569Z,100.00
2023-08-28T21:06:17.149Z,100.00
2023-08-28T21:08:45.200Z,100.00
2023-08-28T21:11:11.774Z,100.00
2023-08-28T21:13:38.347Z,100.00
2023-08-28T21:16:04.909Z,100.00
2023-08-28T21:18:31.620Z,100.00
2023-08-28T21:21:01.816Z,100.00
2023-08-28T21:23:28.956Z,100.00
2023-08-28T21:26:00.041Z,100.00
2023-08-28T21:28:34.775Z,100.00
2023-08-28T21:31:03.629Z,100.00
2023-08-28T21:33:31.464Z,100.00
2023-08-28T21:35:59.644Z,100.00
2023-08-28T21:38:27.426Z,100.00
2023-08-28T21:40:58.369Z,100.00
2023-08-28T21:43:25.288Z,100.00
2023-08-28T21:45:57.857Z,100.00
2023-08-28T21:48:28.239Z,100.00
2023-08-28T21:51:13.299Z,100.00
2023-08-28T21:53:58.606Z,100.00
2023-08-28T21:56:43.911Z,100.00
2023-08-28T21:59:29.269Z,100.00
2023-08-28T22:02:15.115Z,100.00
2023-08-28T22:05:00.487Z,100.00
2023-08-28T22:07:39.808Z,100.00
2023-08-28T22:10:18.426Z,100.00
2023-08-28T22:13:02.123Z,100.00
2023-08-28T22:15:32.909Z,100.00
2023-08-28T22:18:05.106Z,100.00
2023-08-28T22:20:32.109Z,100.00
2023-08-28T22:22:59.787Z,100.00
2023-08-28T22:25:26.943Z,100.00
2023-08-28T22:27:53.593Z,100.00
2023-08-28T22:30:20.381Z,100.00
2023-08-28T22:32:47.184Z,100.00
2023-08-28T22:35:14.001Z,100.00
2023-08-28T22:37:40.976Z,100.00
2023-08-28T22:40:10.765Z,100.00
2023-08-28T22:42:39.906Z,100.00
2023-08-28T22:45:06.841Z,100.00
2023-08-28T22:47:34.800Z,100.00
2023-08-28T22:50:01.593Z,100.00
2023-08-28T22:52:28.266Z,100.00
2023-08-28T22:54:54.960Z,100.00
2023-08-28T22:57:21.527Z,100.00
2023-08-28T22:59:48.066Z,100.00
2023-08-28T23:02:14.655Z,100.00
2023-08-28T23:04:41.273Z,100.00
2023-08-28T23:07:08.419Z,100.00
2023-08-28T23:09:34.922Z,100.00
2023-08-28T23:12:01.810Z,100.00
2023-08-28T23:14:28.727Z,100.00
2023-08-28T23:16:55.468Z,100.00
2023-08-28T23:19:24.898Z,100.00
2023-08-28T23:21:54.581Z,100.00
2023-08-28T23:24:27.361Z,100.00
2023-08-28T23:27:00.921Z,100.00
2023-08-28T23:29:27.436Z,100.00
2023-08-28T23:31:54.010Z,100.00
2023-08-28T23:34:21.559Z,100.00
2023-08-28T23:36:50.109Z,100.00
2023-08-28T23:39:16.720Z,100.00
2023-08-28T23:41:43.400Z,100.00
2023-08-28T23:44:10.062Z,100.00
2023-08-28T23:46:36.646Z,100.00
2023-08-28T23:49:03.660Z,100.00
2023-08-28T23:51:30.523Z,100.00
2023-08-28T23:53:57.405Z,100.00
2023-08-28T23:56:23.979Z,100.00
2023-08-28T23:58:56.111Z,100.00
